sensor_id;sensor_type;location;lat;lon;timestamp;P1;durP1;ratioP1;P2;durP2;ratioP2
47599;SDS011;33323;52.124;6.018;2023-10-13T00:01:08;36.35;;;17.95;;
47599;SDS011;33323;52.124;6.018;2023-10-13T00:03:38;36.25;;;18.75;;
47599;SDS011;33323;52.124;6.018;2023-10-13T00:06:06;35.30;;;19.38;;
47599;SDS011;33323;52.124;6.018;2023-10-13T00:08:35;34.45;;;19.80;;
47599;SDS011;33323;52.124;6.018;2023-10-13T00:11:03;35.58;;;18.65;;
47599;SDS011;33323;52.124;6.018;2023-10-13T00:13:31;34.25;;;19.65;;
47599;SDS011;33323;52.124;6.018;2023-10-13T00:16:09;27.52;;;18.65;;
47599;SDS011;33323;52.124;6.018;2023-10-13T00:18:36;29.98;;;18.88;;
47599;SDS011;33323;52.124;6.018;2023-10-13T00:21:10;32.30;;;18.90;;
47599;SDS011;33323;52.124;6.018;2023-10-13T00:23:42;28.90;;;18.35;;
47599;SDS011;33323;52.124;6.018;2023-10-13T00:26:20;28.25;;;18.10;;
47599;SDS011;33323;52.124;6.018;2023-10-13T00:28:57;34.65;;;20.33;;
47599;SDS011;33323;52.124;6.018;2023-10-13T00:31:36;33.50;;;21.70;;
47599;SDS011;33323;52.124;6.018;2023-10-13T00:34:07;29.92;;;19.75;;
47599;SDS011;33323;52.124;6.018;2023-10-13T00:36:44;30.77;;;20.83;;
47599;SDS011;33323;52.124;6.018;2023-10-13T00:39:15;30.67;;;19.42;;
47599;SDS011;33323;52.124;6.018;2023-10-13T00:41:43;28.05;;;18.27;;
47599;SDS011;33323;52.124;6.018;2023-10-13T00:44:18;24.73;;;17.63;;
47599;SDS011;33323;52.124;6.018;2023-10-13T00:47:04;32.22;;;16.38;;
47599;SDS011;33323;52.124;6.018;2023-10-13T00:49:34;28.40;;;17.17;;
47599;SDS011;33323;52.124;6.018;2023-10-13T00:52:06;24.48;;;15.27;;
47599;SDS011;33323;52.124;6.018;2023-10-13T00:54:36;23.10;;;15.48;;
47599;SDS011;33323;52.124;6.018;2023-10-13T00:57:05;26.50;;;17.27;;
47599;SDS011;33323;52.124;6.018;2023-10-13T00:59:38;22.60;;;16.33;;
47599;SDS011;33323;52.124;6.018;2023-10-13T01:02:09;24.48;;;16.67;;
47599;SDS011;33323;52.124;6.018;2023-10-13T01:04:54;24.38;;;15.75;;
47599;SDS011;33323;52.124;6.018;2023-10-13T01:07:23;22.92;;;16.15;;
47599;SDS011;33323;52.124;6.018;2023-10-13T01:09:51;27.73;;;16.35;;
47599;SDS011;33323;52.124;6.018;2023-10-13T01:12:18;24.90;;;15.82;;
47599;SDS011;33323;52.124;6.018;2023-10-13T01:14:45;26.73;;;15.98;;
47599;SDS011;33323;52.124;6.018;2023-10-13T01:17:12;23.15;;;15.75;;
47599;SDS011;33323;52.124;6.018;2023-10-13T01:19:39;24.05;;;16.65;;
47599;SDS011;33323;52.124;6.018;2023-10-13T01:22:11;24.05;;;14.90;;
47599;SDS011;33323;52.124;6.018;2023-10-13T01:24:39;20.27;;;14.77;;
47599;SDS011;33323;52.124;6.018;2023-10-13T01:27:06;21.52;;;15.48;;
47599;SDS011;33323;52.124;6.018;2023-10-13T01:29:47;27.48;;;15.32;;
47599;SDS011;33323;52.124;6.018;2023-10-13T01:32:19;22.80;;;15.52;;
47599;SDS011;33323;52.124;6.018;2023-10-13T01:34:49;22.33;;;15.73;;
47599;SDS011;33323;52.124;6.018;2023-10-13T01:37:22;21.23;;;14.98;;
47599;SDS011;33323;52.124;6.018;2023-10-13T01:39:49;23.10;;;15.45;;
47599;SDS011;33323;52.124;6.018;2023-10-13T01:42:17;26.85;;;14.55;;
47599;SDS011;33323;52.124;6.018;2023-10-13T01:44:48;27.05;;;15.00;;
47599;SDS011;33323;52.124;6.018;2023-10-13T01:47:16;23.55;;;15.07;;
47599;SDS011;33323;52.124;6.018;2023-10-13T01:49:43;24.00;;;15.00;;
47599;SDS011;33323;52.124;6.018;2023-10-13T01:52:14;23.63;;;13.50;;
47599;SDS011;33323;52.124;6.018;2023-10-13T01:54:44;23.65;;;15.70;;
47599;SDS011;33323;52.124;6.018;2023-10-13T01:57:12;26.75;;;15.45;;
47599;SDS011;33323;52.124;6.018;2023-10-13T01:59:48;26.92;;;14.20;;
47599;SDS011;33323;52.124;6.018;2023-10-13T02:02:16;22.80;;;14.77;;
47599;SDS011;33323;52.124;6.018;2023-10-13T02:04:57;22.67;;;14.35;;
47599;SDS011;33323;52.124;6.018;2023-10-13T02:07:27;21.95;;;14.00;;
47599;SDS011;33323;52.124;6.018;2023-10-13T02:10:01;22.88;;;14.95;;
47599;SDS011;33323;52.124;6.018;2023-10-13T02:12:32;22.15;;;14.40;;
47599;SDS011;33323;52.124;6.018;2023-10-13T02:15:11;20.95;;;13.50;;
47599;SDS011;33323;52.124;6.018;2023-10-13T02:17:48;28.73;;;14.63;;
47599;SDS011;33323;52.124;6.018;2023-10-13T02:20:18;21.98;;;13.38;;
47599;SDS011;33323;52.124;6.018;2023-10-13T02:22:49;25.50;;;13.85;;
47599;SDS011;33323;52.124;6.018;2023-10-13T02:25:17;18.10;;;12.90;;
47599;SDS011;33323;52.124;6.018;2023-10-13T02:28:12;18.80;;;12.35;;
47599;SDS011;33323;52.124;6.018;2023-10-13T02:30:48;19.23;;;12.00;;
47599;SDS011;33323;52.124;6.018;2023-10-13T02:33:17;18.90;;;12.35;;
47599;SDS011;33323;52.124;6.018;2023-10-13T02:35:59;21.38;;;12.85;;
47599;SDS011;33323;52.124;6.018;2023-10-13T02:38:33;18.08;;;11.13;;
47599;SDS011;33323;52.124;6.018;2023-10-13T02:41:16;21.27;;;12.20;;
47599;SDS011;33323;52.124;6.018;2023-10-13T02:43:52;22.87;;;13.60;;
47599;SDS011;33323;52.124;6.018;2023-10-13T02:46:20;22.88;;;12.00;;
47599;SDS011;33323;52.124;6.018;2023-10-13T02:48:49;18.40;;;12.75;;
47599;SDS011;33323;52.124;6.018;2023-10-13T02:51:26;19.63;;;11.60;;
47599;SDS011;33323;52.124;6.018;2023-10-13T02:54:03;16.23;;;11.10;;
47599;SDS011;33323;52.124;6.018;2023-10-13T02:56:37;22.00;;;11.37;;
47599;SDS011;33323;52.124;6.018;2023-10-13T02:59:15;20.90;;;11.77;;
47599;SDS011;33323;52.124;6.018;2023-10-13T03:01:46;19.80;;;11.88;;
47599;SDS011;33323;52.124;6.018;2023-10-13T03:04:13;20.02;;;12.23;;
47599;SDS011;33323;52.124;6.018;2023-10-13T03:06:40;19.83;;;10.77;;
47599;SDS011;33323;52.124;6.018;2023-10-13T03:09:08;18.40;;;10.82;;
47599;SDS011;33323;52.124;6.018;2023-10-13T03:11:46;23.17;;;11.43;;
47599;SDS011;33323;52.124;6.018;2023-10-13T03:14:18;18.13;;;11.80;;
47599;SDS011;33323;52.124;6.018;2023-10-13T03:16:58;19.15;;;11.57;;
47599;SDS011;33323;52.124;6.018;2023-10-13T03:19:32;21.60;;;10.97;;
47599;SDS011;33323;52.124;6.018;2023-10-13T03:22:01;17.05;;;10.48;;
47599;SDS011;33323;52.124;6.018;2023-10-13T03:24:39;16.65;;;10.63;;
47599;SDS011;33323;52.124;6.018;2023-10-13T03:27:13;16.60;;;10.27;;
47599;SDS011;33323;52.124;6.018;2023-10-13T03:32:22;22.17;;;10.80;;
47599;SDS011;33323;52.124;6.018;2023-10-13T03:34:53;18.83;;;10.32;;
47599;SDS011;33323;52.124;6.018;2023-10-13T03:37:26;20.05;;;10.30;;
47599;SDS011;33323;52.124;6.018;2023-10-13T03:40:07;14.98;;;9.55;;
47599;SDS011;33323;52.124;6.018;2023-10-13T03:42:52;17.38;;;10.80;;
47599;SDS011;33323;52.124;6.018;2023-10-13T03:48:12;15.65;;;9.32;;
47599;SDS011;33323;52.124;6.018;2023-10-13T03:50:54;17.48;;;9.32;;
47599;SDS011;33323;52.124;6.018;2023-10-13T03:53:41;15.77;;;8.82;;
47599;SDS011;33323;52.124;6.018;2023-10-13T03:56:25;17.10;;;9.18;;
47599;SDS011;33323;52.124;6.018;2023-10-13T03:59:06;13.50;;;8.73;;
47599;SDS011;33323;52.124;6.018;2023-10-13T04:01:46;17.33;;;8.10;;
47599;SDS011;33323;52.124;6.018;2023-10-13T04:04:29;17.02;;;8.32;;
47599;SDS011;33323;52.124;6.018;2023-10-13T04:07:16;15.82;;;9.48;;
47599;SDS011;33323;52.124;6.018;2023-10-13T04:10:03;14.95;;;9.63;;
47599;SDS011;33323;52.124;6.018;2023-10-13T04:13:04;14.35;;;7.90;;
47599;SDS011;33323;52.124;6.018;2023-10-13T04:18:36;19.05;;;9.20;;
47599;SDS011;33323;52.124;6.018;2023-10-13T04:21:24;17.50;;;7.93;;
47599;SDS011;33323;52.124;6.018;2023-10-13T04:24:23;11.55;;;7.53;;
47599;SDS011;33323;52.124;6.018;2023-10-13T04:27:11;15.15;;;8.25;;
47599;SDS011;33323;52.124;6.018;2023-10-13T04:29:39;10.00;;;7.55;;
47599;SDS011;33323;52.124;6.018;2023-10-13T04:32:17;13.45;;;9.13;;
47599;SDS011;33323;52.124;6.018;2023-10-13T04:35:05;14.80;;;8.43;;
47599;SDS011;33323;52.124;6.018;2023-10-13T04:37:39;13.13;;;8.65;;
47599;SDS011;33323;52.124;6.018;2023-10-13T04:40:18;15.77;;;7.47;;
47599;SDS011;33323;52.124;6.018;2023-10-13T04:42:51;15.63;;;8.35;;
47599;SDS011;33323;52.124;6.018;2023-10-13T04:45:25;11.65;;;7.68;;
47599;SDS011;33323;52.124;6.018;2023-10-13T04:47:58;16.75;;;7.75;;
47599;SDS011;33323;52.124;6.018;2023-10-13T04:50:58;14.18;;;7.10;;
47599;SDS011;33323;52.124;6.018;2023-10-13T04:54:05;15.63;;;7.40;;
47599;SDS011;33323;52.124;6.018;2023-10-13T04:56:52;13.00;;;8.13;;
47599;SDS011;33323;52.124;6.018;2023-10-13T04:59:26;19.10;;;10.07;;
47599;SDS011;33323;52.124;6.018;2023-10-13T05:02:03;11.50;;;7.43;;
47599;SDS011;33323;52.124;6.018;2023-10-13T05:04:49;14.82;;;7.47;;
47599;SDS011;33323;52.124;6.018;2023-10-13T05:07:32;11.38;;;8.32;;
47599;SDS011;33323;52.124;6.018;2023-10-13T05:10:18;11.68;;;7.32;;
47599;SDS011;33323;52.124;6.018;2023-10-13T05:15:50;15.25;;;8.48;;
47599;SDS011;33323;52.124;6.018;2023-10-13T05:18:36;16.65;;;9.57;;
47599;SDS011;33323;52.124;6.018;2023-10-13T05:21:22;17.15;;;9.45;;
47599;SDS011;33323;52.124;6.018;2023-10-13T05:24:08;14.30;;;9.57;;
47599;SDS011;33323;52.124;6.018;2023-10-13T05:26:53;15.02;;;9.85;;
47599;SDS011;33323;52.124;6.018;2023-10-13T05:29:40;15.32;;;9.23;;
47599;SDS011;33323;52.124;6.018;2023-10-13T05:32:27;15.27;;;9.27;;
47599;SDS011;33323;52.124;6.018;2023-10-13T05:35:14;21.35;;;9.32;;
47599;SDS011;33323;52.124;6.018;2023-10-13T05:38:01;18.50;;;9.63;;
47599;SDS011;33323;52.124;6.018;2023-10-13T05:43:50;15.82;;;7.55;;
47599;SDS011;33323;52.124;6.018;2023-10-13T05:46:36;12.85;;;5.95;;
47599;SDS011;33323;52.124;6.018;2023-10-13T05:49:23;9.10;;;6.53;;
47599;SDS011;33323;52.124;6.018;2023-10-13T05:52:13;8.55;;;4.72;;
47599;SDS011;33323;52.124;6.018;2023-10-13T05:55:06;11.57;;;6.68;;
47599;SDS011;33323;52.124;6.018;2023-10-13T06:00:38;9.55;;;5.40;;
47599;SDS011;33323;52.124;6.018;2023-10-13T06:03:25;9.32;;;5.43;;
47599;SDS011;33323;52.124;6.018;2023-10-13T06:06:11;13.43;;;6.20;;
47599;SDS011;33323;52.124;6.018;2023-10-13T06:11:42;9.15;;;6.32;;
47599;SDS011;33323;52.124;6.018;2023-10-13T06:14:28;9.00;;;5.15;;
47599;SDS011;33323;52.124;6.018;2023-10-13T06:17:14;16.90;;;7.35;;
47599;SDS011;33323;52.124;6.018;2023-10-13T06:22:49;8.50;;;5.15;;
47599;SDS011;33323;52.124;6.018;2023-10-13T06:25:35;11.13;;;5.28;;
47599;SDS011;33323;52.124;6.018;2023-10-13T06:28:20;10.93;;;5.90;;
47599;SDS011;33323;52.124;6.018;2023-10-13T06:31:06;19.83;;;6.45;;
47599;SDS011;33323;52.124;6.018;2023-10-13T06:33:38;9.13;;;5.60;;
47599;SDS011;33323;52.124;6.018;2023-10-13T06:36:11;10.70;;;5.85;;
47599;SDS011;33323;52.124;6.018;2023-10-13T06:38:38;12.90;;;5.47;;
47599;SDS011;33323;52.124;6.018;2023-10-13T06:41:06;12.23;;;6.75;;
47599;SDS011;33323;52.124;6.018;2023-10-13T06:43:34;13.82;;;7.18;;
47599;SDS011;33323;52.124;6.018;2023-10-13T06:46:06;10.07;;;6.43;;
47599;SDS011;33323;52.124;6.018;2023-10-13T06:48:41;10.88;;;6.45;;
47599;SDS011;33323;52.124;6.018;2023-10-13T06:51:09;11.05;;;6.47;;
47599;SDS011;33323;52.124;6.018;2023-10-13T06:53:49;11.07;;;6.85;;
47599;SDS011;33323;52.124;6.018;2023-10-13T06:56:22;9.13;;;6.43;;
47599;SDS011;33323;52.124;6.018;2023-10-13T06:58:54;7.75;;;5.90;;
47599;SDS011;33323;52.124;6.018;2023-10-13T07:01:26;13.27;;;6.38;;
47599;SDS011;33323;52.124;6.018;2023-10-13T07:03:54;12.95;;;7.00;;
47599;SDS011;33323;52.124;6.018;2023-10-13T07:06:28;10.85;;;6.72;;
47599;SDS011;33323;52.124;6.018;2023-10-13T07:08:58;8.82;;;5.65;;
47599;SDS011;33323;52.124;6.018;2023-10-13T07:11:30;11.70;;;7.50;;
47599;SDS011;33323;52.124;6.018;2023-10-13T07:14:00;10.70;;;6.28;;
47599;SDS011;33323;52.124;6.018;2023-10-13T07:16:44;13.48;;;7.10;;
47599;SDS011;33323;52.124;6.018;2023-10-13T07:19:27;14.73;;;6.22;;
47599;SDS011;33323;52.124;6.018;2023-10-13T07:21:55;8.85;;;6.13;;
47599;SDS011;33323;52.124;6.018;2023-10-13T07:24:30;12.18;;;6.03;;
47599;SDS011;33323;52.124;6.018;2023-10-13T07:27:06;10.48;;;6.15;;
47599;SDS011;33323;52.124;6.018;2023-10-13T07:29:34;9.02;;;6.35;;
47599;SDS011;33323;52.124;6.018;2023-10-13T07:32:02;10.07;;;5.93;;
47599;SDS011;33323;52.124;6.018;2023-10-13T07:34:30;10.50;;;5.60;;
47599;SDS011;33323;52.124;6.018;2023-10-13T07:37:02;10.23;;;6.65;;
47599;SDS011;33323;52.124;6.018;2023-10-13T07:39:34;12.35;;;6.95;;
47599;SDS011;33323;52.124;6.018;2023-10-13T07:42:04;10.57;;;6.35;;
47599;SDS011;33323;52.124;6.018;2023-10-13T07:44:41;11.95;;;5.95;;
47599;SDS011;33323;52.124;6.018;2023-10-13T07:47:14;12.68;;;6.47;;
47599;SDS011;33323;52.124;6.018;2023-10-13T07:49:44;10.48;;;6.80;;
47599;SDS011;33323;52.124;6.018;2023-10-13T07:52:14;16.00;;;7.05;;
47599;SDS011;33323;52.124;6.018;2023-10-13T07:54:56;14.40;;;6.50;;
47599;SDS011;33323;52.124;6.018;2023-10-13T07:57:38;14.18;;;7.10;;
47599;SDS011;33323;52.124;6.018;2023-10-13T08:00:21;10.27;;;6.43;;
47599;SDS011;33323;52.124;6.018;2023-10-13T08:03:13;10.23;;;6.53;;
47599;SDS011;33323;52.124;6.018;2023-10-13T08:05:45;10.38;;;6.32;;
47599;SDS011;33323;52.124;6.018;2023-10-13T08:08:37;13.80;;;7.45;;
47599;SDS011;33323;52.124;6.018;2023-10-13T08:11:05;15.25;;;7.47;;
47599;SDS011;33323;52.124;6.018;2023-10-13T08:13:53;10.45;;;6.43;;
47599;SDS011;33323;52.124;6.018;2023-10-13T08:16:35;15.45;;;7.22;;
47599;SDS011;33323;52.124;6.018;2023-10-13T08:19:21;12.85;;;5.72;;
47599;SDS011;33323;52.124;6.018;2023-10-13T08:22:09;12.23;;;5.97;;
47599;SDS011;33323;52.124;6.018;2023-10-13T08:24:42;10.02;;;5.93;;
47599;SDS011;33323;52.124;6.018;2023-10-13T08:27:10;15.45;;;6.90;;
47599;SDS011;33323;52.124;6.018;2023-10-13T08:29:58;16.85;;;5.97;;
47599;SDS011;33323;52.124;6.018;2023-10-13T08:32:26;15.30;;;5.93;;
47599;SDS011;33323;52.124;6.018;2023-10-13T08:34:59;16.08;;;5.55;;
47599;SDS011;33323;52.124;6.018;2023-10-13T08:37:30;11.73;;;5.32;;
47599;SDS011;33323;52.124;6.018;2023-10-13T08:40:03;15.65;;;5.68;;
47599;SDS011;33323;52.124;6.018;2023-10-13T08:42:51;11.85;;;4.90;;
47599;SDS011;33323;52.124;6.018;2023-10-13T08:45:37;13.00;;;6.40;;
47599;SDS011;33323;52.124;6.018;2023-10-13T08:48:10;12.93;;;5.90;;
47599;SDS011;33323;52.124;6.018;2023-10-13T08:50:41;17.35;;;6.20;;
47599;SDS011;33323;52.124;6.018;2023-10-13T08:53:26;15.07;;;5.68;;
47599;SDS011;33323;52.124;6.018;2023-10-13T08:56:10;11.23;;;4.43;;
47599;SDS011;33323;52.124;6.018;2023-10-13T08:59:00;13.25;;;4.80;;
47599;SDS011;33323;52.124;6.018;2023-10-13T09:01:33;12.70;;;4.80;;
47599;SDS011;33323;52.124;6.018;2023-10-13T09:04:16;19.98;;;5.85;;
47599;SDS011;33323;52.124;6.018;2023-10-13T09:12:10;15.93;;;5.82;;
47599;SDS011;33323;52.124;6.018;2023-10-13T09:14:41;14.43;;;5.25;;
47599;SDS011;33323;52.124;6.018;2023-10-13T09:17:23;15.20;;;5.22;;
47599;SDS011;33323;52.124;6.018;2023-10-13T09:20:05;14.07;;;5.75;;
47599;SDS011;33323;52.124;6.018;2023-10-13T09:22:46;13.60;;;4.80;;
47599;SDS011;33323;52.124;6.018;2023-10-13T09:25:36;8.10;;;4.35;;
47599;SDS011;33323;52.124;6.018;2023-10-13T09:28:14;11.95;;;4.80;;
47599;SDS011;33323;52.124;6.018;2023-10-13T09:30:42;11.68;;;4.65;;
47599;SDS011;33323;52.124;6.018;2023-10-13T09:33:20;13.97;;;5.30;;
47599;SDS011;33323;52.124;6.018;2023-10-13T09:36:16;12.48;;;5.25;;
47599;SDS011;33323;52.124;6.018;2023-10-13T09:38:43;11.70;;;4.60;;
47599;SDS011;33323;52.124;6.018;2023-10-13T09:41:15;13.27;;;4.72;;
47599;SDS011;33323;52.124;6.018;2023-10-13T09:43:45;13.45;;;4.78;;
47599;SDS011;33323;52.124;6.018;2023-10-13T09:46:19;12.32;;;5.00;;
47599;SDS011;33323;52.124;6.018;2023-10-13T09:48:50;12.73;;;5.20;;
47599;SDS011;33323;52.124;6.018;2023-10-13T09:51:47;15.02;;;4.75;;
47599;SDS011;33323;52.124;6.018;2023-10-13T09:54:20;13.60;;;5.30;;
47599;SDS011;33323;52.124;6.018;2023-10-13T09:57:17;12.10;;;4.78;;
47599;SDS011;33323;52.124;6.018;2023-10-13T09:59:52;13.13;;;4.93;;
47599;SDS011;33323;52.124;6.018;2023-10-13T10:02:36;14.38;;;4.70;;
47599;SDS011;33323;52.124;6.018;2023-10-13T10:05:10;14.65;;;4.78;;
47599;SDS011;33323;52.124;6.018;2023-10-13T10:07:57;13.32;;;4.65;;
47599;SDS011;33323;52.124;6.018;2023-10-13T10:10:27;12.73;;;4.47;;
47599;SDS011;33323;52.124;6.018;2023-10-13T10:13:32;11.27;;;5.35;;
47599;SDS011;33323;52.124;6.018;2023-10-13T10:16:12;13.95;;;4.78;;
47599;SDS011;33323;52.124;6.018;2023-10-13T10:18:46;10.55;;;4.63;;
47599;SDS011;33323;52.124;6.018;2023-10-13T10:21:14;13.35;;;4.70;;
47599;SDS011;33323;52.124;6.018;2023-10-13T10:23:42;18.17;;;5.65;;
47599;SDS011;33323;52.124;6.018;2023-10-13T10:26:20;13.00;;;5.07;;
47599;SDS011;33323;52.124;6.018;2023-10-13T10:28:47;11.38;;;5.03;;
47599;SDS011;33323;52.124;6.018;2023-10-13T10:31:15;11.98;;;5.28;;
47599;SDS011;33323;52.124;6.018;2023-10-13T10:33:44;12.27;;;4.90;;
47599;SDS011;33323;52.124;6.018;2023-10-13T10:36:12;13.68;;;4.97;;
47599;SDS011;33323;52.124;6.018;2023-10-13T10:38:55;13.57;;;5.22;;
47599;SDS011;33323;52.124;6.018;2023-10-13T10:41:28;10.45;;;4.43;;
47599;SDS011;33323;52.124;6.018;2023-10-13T10:46:43;18.70;;;5.70;;
47599;SDS011;33323;52.124;6.018;2023-10-13T10:49:19;9.27;;;4.65;;
47599;SDS011;33323;52.124;6.018;2023-10-13T10:51:57;12.88;;;4.90;;
47599;SDS011;33323;52.124;6.018;2023-10-13T10:54:27;10.82;;;4.28;;
47599;SDS011;33323;52.124;6.018;2023-10-13T10:57:00;13.77;;;4.65;;
47599;SDS011;33323;52.124;6.018;2023-10-13T10:59:38;9.18;;;4.03;;
47599;SDS011;33323;52.124;6.018;2023-10-13T11:02:06;13.48;;;5.03;;
47599;SDS011;33323;52.124;6.018;2023-10-13T11:04:35;23.58;;;4.63;;
47599;SDS011;33323;52.124;6.018;2023-10-13T11:07:21;8.60;;;4.63;;
47599;SDS011;33323;52.124;6.018;2023-10-13T11:09:54;13.82;;;5.28;;
47599;SDS011;33323;52.124;6.018;2023-10-13T11:12:55;16.90;;;4.93;;
47599;SDS011;33323;52.124;6.018;2023-10-13T11:15:44;12.65;;;4.28;;
47599;SDS011;33323;52.124;6.018;2023-10-13T11:18:12;11.70;;;5.05;;
47599;SDS011;33323;52.124;6.018;2023-10-13T11:20:55;12.98;;;4.35;;
47599;SDS011;33323;52.124;6.018;2023-10-13T11:23:23;13.05;;;4.43;;
47599;SDS011;33323;52.124;6.018;2023-10-13T11:25:58;13.77;;;4.60;;
47599;SDS011;33323;52.124;6.018;2023-10-13T11:28:27;12.38;;;5.25;;
47599;SDS011;33323;52.124;6.018;2023-10-13T11:30:55;14.43;;;5.10;;
47599;SDS011;33323;52.124;6.018;2023-10-13T11:33:27;16.05;;;5.25;;
47599;SDS011;33323;52.124;6.018;2023-10-13T11:35:57;15.23;;;5.10;;
47599;SDS011;33323;52.124;6.018;2023-10-13T11:41:17;16.23;;;4.38;;
47599;SDS011;33323;52.124;6.018;2023-10-13T11:43:46;15.85;;;5.05;;
47599;SDS011;33323;52.124;6.018;2023-10-13T11:46:26;14.02;;;4.47;;
47599;SDS011;33323;52.124;6.018;2023-10-13T11:49:07;12.43;;;4.90;;
47599;SDS011;33323;52.124;6.018;2023-10-13T11:51:40;18.75;;;5.30;;
47599;SDS011;33323;52.124;6.018;2023-10-13T11:54:12;11.48;;;4.75;;
47599;SDS011;33323;52.124;6.018;2023-10-13T11:56:47;12.85;;;5.45;;
47599;SDS011;33323;52.124;6.018;2023-10-13T11:59:16;10.13;;;4.40;;
47599;SDS011;33323;52.124;6.018;2023-10-13T12:01:45;13.77;;;4.88;;
47599;SDS011;33323;52.124;6.018;2023-10-13T12:04:35;17.00;;;5.72;;
47599;SDS011;33323;52.124;6.018;2023-10-13T12:07:07;11.35;;;4.95;;
47599;SDS011;33323;52.124;6.018;2023-10-13T12:09:51;15.07;;;5.50;;
47599;SDS011;33323;52.124;6.018;2023-10-13T12:12:29;17.02;;;5.40;;
47599;SDS011;33323;52.124;6.018;2023-10-13T12:14:58;12.75;;;5.40;;
47599;SDS011;33323;52.124;6.018;2023-10-13T12:17:36;16.50;;;5.15;;
47599;SDS011;33323;52.124;6.018;2023-10-13T12:20:06;18.67;;;5.25;;
47599;SDS011;33323;52.124;6.018;2023-10-13T12:22:37;15.00;;;4.78;;
47599;SDS011;33323;52.124;6.018;2023-10-13T12:25:06;13.88;;;4.78;;
47599;SDS011;33323;52.124;6.018;2023-10-13T12:27:52;16.88;;;6.35;;
47599;SDS011;33323;52.124;6.018;2023-10-13T12:30:24;15.20;;;4.53;;
47599;SDS011;33323;52.124;6.018;2023-10-13T12:33:10;16.40;;;5.60;;
47599;SDS011;33323;52.124;6.018;2023-10-13T12:35:41;8.60;;;4.57;;
47599;SDS011;33323;52.124;6.018;2023-10-13T12:38:30;14.75;;;4.70;;
47599;SDS011;33323;52.124;6.018;2023-10-13T12:41:06;11.82;;;4.43;;
47599;SDS011;33323;52.124;6.018;2023-10-13T12:44:00;11.82;;;5.22;;
47599;SDS011;33323;52.124;6.018;2023-10-13T12:46:48;14.45;;;4.85;;
47599;SDS011;33323;52.124;6.018;2023-10-13T12:49:34;12.48;;;5.18;;
47599;SDS011;33323;52.124;6.018;2023-10-13T12:52:10;16.35;;;5.03;;
47599;SDS011;33323;52.124;6.018;2023-10-13T12:54:58;15.88;;;4.85;;
47599;SDS011;33323;52.124;6.018;2023-10-13T12:57:33;19.00;;;4.90;;
47599;SDS011;33323;52.124;6.018;2023-10-13T13:00:03;18.35;;;5.90;;
47599;SDS011;33323;52.124;6.018;2023-10-13T13:02:43;20.63;;;5.38;;
47599;SDS011;33323;52.124;6.018;2023-10-13T13:05:11;13.57;;;4.93;;
47599;SDS011;33323;52.124;6.018;2023-10-13T13:07:39;16.00;;;4.47;;
47599;SDS011;33323;52.124;6.018;2023-10-13T13:10:14;16.17;;;5.40;;
47599;SDS011;33323;52.124;6.018;2023-10-13T13:12:41;19.02;;;5.30;;
47599;SDS011;33323;52.124;6.018;2023-10-13T13:15:11;12.50;;;5.10;;
47599;SDS011;33323;52.124;6.018;2023-10-13T13:17:39;22.13;;;4.70;;
47599;SDS011;33323;52.124;6.018;2023-10-13T13:20:07;15.32;;;5.03;;
47599;SDS011;33323;52.124;6.018;2023-10-13T13:22:52;15.75;;;4.50;;
47599;SDS011;33323;52.124;6.018;2023-10-13T13:25:21;19.30;;;5.63;;
47599;SDS011;33323;52.124;6.018;2023-10-13T13:27:57;14.30;;;4.53;;
47599;SDS011;33323;52.124;6.018;2023-10-13T13:30:31;17.90;;;6.15;;
47599;SDS011;33323;52.124;6.018;2023-10-13T13:33:01;15.48;;;4.70;;
47599;SDS011;33323;52.124;6.018;2023-10-13T13:35:38;13.07;;;5.28;;
47599;SDS011;33323;52.124;6.018;2023-10-13T13:38:09;14.50;;;5.15;;
47599;SDS011;33323;52.124;6.018;2023-10-13T13:40:37;18.55;;;5.88;;
47599;SDS011;33323;52.124;6.018;2023-10-13T13:43:05;13.90;;;4.75;;
47599;SDS011;33323;52.124;6.018;2023-10-13T13:45:44;17.63;;;5.35;;
47599;SDS011;33323;52.124;6.018;2023-10-13T13:48:12;15.68;;;5.90;;
47599;SDS011;33323;52.124;6.018;2023-10-13T13:50:43;18.83;;;5.55;;
47599;SDS011;33323;52.124;6.018;2023-10-13T13:53:11;17.92;;;6.53;;
47599;SDS011;33323;52.124;6.018;2023-10-13T13:55:40;18.15;;;5.57;;
47599;SDS011;33323;52.124;6.018;2023-10-13T13:58:08;20.15;;;5.95;;
47599;SDS011;33323;52.124;6.018;2023-10-13T14:00:36;10.88;;;5.20;;
47599;SDS011;33323;52.124;6.018;2023-10-13T14:03:15;18.52;;;6.13;;
47599;SDS011;33323;52.124;6.018;2023-10-13T14:05:58;19.85;;;5.45;;
47599;SDS011;33323;52.124;6.018;2023-10-13T14:08:26;17.20;;;5.72;;
47599;SDS011;33323;52.124;6.018;2023-10-13T14:10:54;15.02;;;5.57;;
47599;SDS011;33323;52.124;6.018;2023-10-13T14:13:43;13.40;;;5.70;;
47599;SDS011;33323;52.124;6.018;2023-10-13T14:16:22;19.95;;;6.28;;
47599;SDS011;33323;52.124;6.018;2023-10-13T14:18:50;12.80;;;5.32;;
47599;SDS011;33323;52.124;6.018;2023-10-13T14:21:18;15.35;;;5.30;;
47599;SDS011;33323;52.124;6.018;2023-10-13T14:23:46;13.05;;;4.78;;
47599;SDS011;33323;52.124;6.018;2023-10-13T14:26:15;8.40;;;5.03;;
47599;SDS011;33323;52.124;6.018;2023-10-13T14:28:48;15.68;;;5.43;;
47599;SDS011;33323;52.124;6.018;2023-10-13T14:31:32;22.15;;;6.50;;
47599;SDS011;33323;52.124;6.018;2023-10-13T14:33:59;15.43;;;5.72;;
47599;SDS011;33323;52.124;6.018;2023-10-13T14:36:26;11.80;;;4.72;;
47599;SDS011;33323;52.124;6.018;2023-10-13T14:39:01;17.70;;;5.40;;
47599;SDS011;33323;52.124;6.018;2023-10-13T14:41:36;19.87;;;5.87;;
47599;SDS011;33323;52.124;6.018;2023-10-13T14:44:07;13.00;;;5.47;;
47599;SDS011;33323;52.124;6.018;2023-10-13T14:46:34;11.15;;;5.13;;
47599;SDS011;33323;52.124;6.018;2023-10-13T14:49:02;16.73;;;6.28;;
47599;SDS011;33323;52.124;6.018;2023-10-13T14:51:30;18.35;;;6.03;;
47599;SDS011;33323;52.124;6.018;2023-10-13T14:53:58;18.88;;;6.63;;
47599;SDS011;33323;52.124;6.018;2023-10-13T14:56:30;13.57;;;5.25;;
47599;SDS011;33323;52.124;6.018;2023-10-13T14:58:57;15.48;;;6.43;;
47599;SDS011;33323;52.124;6.018;2023-10-13T15:01:24;14.30;;;6.28;;
47599;SDS011;33323;52.124;6.018;2023-10-13T15:03:53;15.77;;;5.40;;
47599;SDS011;33323;52.124;6.018;2023-10-13T15:06:26;9.30;;;4.55;;
47599;SDS011;33323;52.124;6.018;2023-10-13T15:08:57;14.48;;;6.28;;
47599;SDS011;33323;52.124;6.018;2023-10-13T15:11:27;12.48;;;5.20;;
47599;SDS011;33323;52.124;6.018;2023-10-13T15:14:12;16.00;;;5.68;;
47599;SDS011;33323;52.124;6.018;2023-10-13T15:16:40;12.30;;;5.05;;
47599;SDS011;33323;52.124;6.018;2023-10-13T15:19:10;16.02;;;6.53;;
47599;SDS011;33323;52.124;6.018;2023-10-13T15:21:39;11.13;;;4.95;;
47599;SDS011;33323;52.124;6.018;2023-10-13T15:24:13;13.45;;;6.53;;
47599;SDS011;33323;52.124;6.018;2023-10-13T15:26:44;11.10;;;5.45;;
47599;SDS011;33323;52.124;6.018;2023-10-13T15:29:18;18.90;;;5.72;;
47599;SDS011;33323;52.124;6.018;2023-10-13T15:31:52;16.25;;;6.43;;
47599;SDS011;33323;52.124;6.018;2023-10-13T15:34:26;16.90;;;6.20;;
47599;SDS011;33323;52.124;6.018;2023-10-13T15:36:54;12.55;;;5.65;;
47599;SDS011;33323;52.124;6.018;2023-10-13T15:39:24;10.80;;;4.93;;
47599;SDS011;33323;52.124;6.018;2023-10-13T15:41:55;14.00;;;5.05;;
47599;SDS011;33323;52.124;6.018;2023-10-13T15:44:26;16.33;;;6.70;;
47599;SDS011;33323;52.124;6.018;2023-10-13T15:46:57;21.52;;;7.28;;
47599;SDS011;33323;52.124;6.018;2023-10-13T15:49:31;12.60;;;5.63;;
47599;SDS011;33323;52.124;6.018;2023-10-13T15:52:00;16.33;;;5.90;;
47599;SDS011;33323;52.124;6.018;2023-10-13T15:54:28;10.07;;;5.28;;